createdAt,value
2023-05-22T00:01:44.432Z,76.71
2023-05-22T00:04:14.037Z,77.18
2023-05-22T00:06:43.910Z,78.05
2023-05-22T00:09:10.592Z,78.03
2023-05-22T00:11:37.231Z,76.51
2023-05-22T00:14:03.898Z,76.09
2023-05-22T00:16:30.724Z,76.91
2023-05-22T00:18:57.709Z,78.95
2023-05-22T00:21:24.957Z,79.43
2023-05-22T00:23:51.571Z,79.82
2023-05-22T00:26:18.184Z,79.29
2023-05-22T00:28:44.846Z,80.12
2023-05-22T00:31:11.640Z,82.32
2023-05-22T00:33:38.357Z,82.26
2023-05-22T00:36:05.525Z,82.57
2023-05-22T00:38:37.602Z,84.58
2023-05-22T00:41:06.059Z,85.62
2023-05-22T00:43:33.893Z,85.44
2023-05-22T00:46:00.840Z,84.75
2023-05-22T00:48:27.640Z,85.26
2023-05-22T00:50:55.446Z,85.55
2023-05-22T00:53:24.292Z,86.55
2023-05-22T00:55:51.830Z,87.52
2023-05-22T00:58:19.266Z,87.74
2023-05-22T01:00:46.944Z,87.13
2023-05-22T01:03:14.851Z,87.62
2023-05-22T01:05:42.214Z,88.06
2023-05-22T01:08:09.360Z,88.18
2023-05-22T01:10:39.466Z,88.52
2023-05-22T01:13:51.171Z,89.24
2023-05-22T01:16:29.865Z,89.30
2023-05-22T01:19:23.424Z,88.58
2023-05-22T01:22:08.321Z,88.51
2023-05-22T01:25:00.687Z,87.81
2023-05-22T01:27:48.842Z,86.92
2023-05-22T01:30:34.060Z,85.99
2023-05-22T01:33:03.786Z,83.88
2023-05-22T01:35:32.658Z,84.40
2023-05-22T01:38:00.734Z,83.94
2023-05-22T01:40:28.453Z,83.44
2023-05-22T01:42:55.542Z,82.79
2023-05-22T01:45:22.288Z,82.40
2023-05-22T01:47:49.147Z,80.59
2023-05-22T01:50:16.210Z,83.19
2023-05-22T01:53:13.774Z,83.74
2023-05-22T01:55:46.235Z,83.98
2023-05-22T01:58:17.655Z,84.37
2023-05-22T02:00:46.336Z,84.02
2023-05-22T02:03:19.384Z,84.76
2023-05-22T02:05:49.483Z,84.14
2023-05-22T02:08:17.020Z,84.61
2023-05-22T02:10:45.879Z,85.28
2023-05-22T02:13:13.040Z,84.13
2023-05-22T02:15:40.101Z,84.53
2023-05-22T02:18:15.340Z,84.66
2023-05-22T02:20:42.305Z,84.48
2023-05-22T02:23:09.327Z,84.58
2023-05-22T02:25:36.151Z,84.02
2023-05-22T02:28:02.873Z,83.47
2023-05-22T02:30:29.564Z,83.32
2023-05-22T02:32:58.369Z,82.71
2023-05-22T02:35:25.006Z,83.05
2023-05-22T02:37:51.776Z,84.04
2023-05-22T02:40:18.401Z,86.50
2023-05-22T02:42:45.025Z,85.64
2023-05-22T02:45:11.754Z,85.11
2023-05-22T02:47:38.440Z,83.79
2023-05-22T02:50:05.573Z,82.89
2023-05-22T02:52:32.147Z,82.46
2023-05-22T02:54:58.852Z,84.66
2023-05-22T02:57:25.467Z,87.19
2023-05-22T02:59:52.662Z,87.94
2023-05-22T03:02:19.892Z,88.43
2023-05-22T03:04:46.691Z,86.42
2023-05-22T03:07:13.365Z,85.43
2023-05-22T03:09:40.000Z,84.37
2023-05-22T03:12:09.361Z,82.60
2023-05-22T03:14:36.662Z,81.93
2023-05-22T03:17:03.779Z,81.67
2023-05-22T03:19:30.548Z,81.63
2023-05-22T03:21:57.596Z,82.96
2023-05-22T03:24:24.198Z,83.55
2023-05-22T03:26:50.991Z,83.60
2023-05-22T03:29:17.788Z,82.76
2023-05-22T03:31:44.517Z,81.88
2023-05-22T03:34:11.252Z,81.86
2023-05-22T03:36:37.933Z,82.23
2023-05-22T03:39:04.949Z,82.95
2023-05-22T03:41:31.556Z,83.49
2023-05-22T03:43:58.457Z,82.75
2023-05-22T03:46:25.302Z,81.67
2023-05-22T03:48:52.070Z,81.37
2023-05-22T03:51:20.262Z,81.50
2023-05-22T03:53:47.261Z,81.15
2023-05-22T03:56:13.883Z,81.03
2023-05-22T03:58:40.946Z,80.55
2023-05-22T04:01:09.906Z,79.19
2023-05-22T04:03:37.651Z,79.43
2023-05-22T04:06:05.698Z,79.20
2023-05-22T04:08:32.475Z,78.85
2023-05-22T04:10:59.164Z,77.32
2023-05-22T04:13:27.435Z,77.92
2023-05-22T04:15:54.185Z,77.70
2023-05-22T04:18:20.899Z,77.14
2023-05-22T04:20:47.523Z,77.70
2023-05-22T04:23:14.171Z,77.22
2023-05-22T04:25:40.839Z,75.57
2023-05-22T04:28:09.307Z,76.38
2023-05-22T04:30:40.434Z,76.97
2023-05-22T04:33:08.489Z,74.52
2023-05-22T04:35:35.472Z,73.54
2023-05-22T04:38:02.260Z,73.98
2023-05-22T04:40:30.359Z,75.40
2023-05-22T04:42:59.929Z,74.76
2023-05-22T04:45:28.934Z,73.56
2023-05-22T04:47:56.544Z,73.24
2023-05-22T04:50:24.038Z,72.93
2023-05-22T04:52:50.979Z,72.35
2023-05-22T04:55:19.176Z,71.75
2023-05-22T04:57:46.090Z,72.41
2023-05-22T05:00:14.500Z,71.66
2023-05-22T05:02:41.398Z,71.45
2023-05-22T05:05:08.536Z,70.52
2023-05-22T05:07:39.364Z,70.95
2023-05-22T05:10:07.444Z,70.78
2023-05-22T05:12:34.422Z,70.55
2023-05-22T05:15:01.547Z,71.54
2023-05-22T05:17:28.785Z,71.08
2023-05-22T05:19:55.552Z,69.06
2023-05-22T05:22:22.216Z,69.87
2023-05-22T05:24:48.915Z,69.45
2023-05-22T05:27:16.050Z,67.96
2023-05-22T05:29:42.683Z,66.75
2023-05-22T05:32:11.572Z,68.28
2023-05-22T05:34:38.496Z,68.46
2023-05-22T05:37:05.841Z,66.65
2023-05-22T05:39:32.476Z,65.80
2023-05-22T05:42:00.230Z,65.24
2023-05-22T05:44:27.091Z,63.47
2023-05-22T05:46:53.875Z,64.11
2023-05-22T05:49:20.513Z,64.86
2023-05-22T05:51:47.144Z,64.80
2023-05-22T05:54:13.785Z,62.82
2023-05-22T05:56:40.748Z,62.45
2023-05-22T05:59:08.054Z,64.09
2023-05-22T06:01:35.384Z,62.05
2023-05-22T06:04:03.538Z,63.33
2023-05-22T06:06:35.749Z,62.07
2023-05-22T06:09:05.440Z,61.56
2023-05-22T06:11:33.231Z,63.68
2023-05-22T06:14:01.377Z,62.42
2023-05-22T06:16:28.371Z,62.19
2023-05-22T06:18:57.160Z,61.54
2023-05-22T06:21:24.544Z,59.67
2023-05-22T06:23:51.701Z,59.43
2023-05-22T06:26:18.842Z,59.19
2023-05-22T06:28:48.200Z,59.41
2023-05-22T06:31:14.813Z,57.39
2023-05-22T06:33:43.401Z,58.53
2023-05-22T06:36:11.543Z,57.42
2023-05-22T06:38:39.189Z,58.91
2023-05-22T06:41:06.522Z,55.20
2023-05-22T06:43:33.297Z,55.46
2023-05-22T06:46:00.202Z,56.46
2023-05-22T06:48:26.850Z,57.51
2023-05-22T06:50:53.495Z,56.79
2023-05-22T06:53:20.353Z,56.21
2023-05-22T06:55:47.042Z,56.59
2023-05-22T06:58:13.803Z,55.70
2023-05-22T07:00:40.604Z,54.12
2023-05-22T07:03:07.632Z,52.97
2023-05-22T07:05:34.329Z,52.91
2023-05-22T07:08:01.638Z,53.23
2023-05-22T07:10:28.543Z,52.10
2023-05-22T07:12:55.279Z,51.40
2023-05-22T07:15:22.077Z,51.70
2023-05-22T07:17:49.724Z,50.69
2023-05-22T07:20:17.800Z,49.38
2023-05-22T07:22:44.484Z,50.28
2023-05-22T07:25:11.295Z,53.21
2023-05-22T07:27:38.003Z,49.39
2023-05-22T07:30:05.221Z,49.90
2023-05-22T07:32:31.847Z,49.47
2023-05-22T07:34:58.436Z,49.17
2023-05-22T07:37:25.052Z,48.65
2023-05-22T07:39:51.669Z,49.94
2023-05-22T07:42:18.374Z,49.25
2023-05-22T07:44:45.023Z,44.64
2023-05-22T07:47:11.678Z,45.40
2023-05-22T07:49:38.277Z,46.10
2023-05-22T07:52:05.199Z,44.85
2023-05-22T07:54:31.823Z,47.45
2023-05-22T07:56:58.455Z,46.83
2023-05-22T07:59:25.597Z,46.82
2023-05-22T08:01:52.357Z,45.97
2023-05-22T08:04:19.240Z,46.99
2023-05-22T08:06:46.392Z,49.50
2023-05-22T08:09:13.472Z,47.77
2023-05-22T08:11:42.269Z,47.37
2023-05-22T08:14:09.100Z,46.92
2023-05-22T08:16:35.842Z,46.66
2023-05-22T08:19:03.266Z,49.22
2023-05-22T08:21:30.033Z,47.38
2023-05-22T08:23:56.634Z,46.78
2023-05-22T08:26:23.271Z,49.44
2023-05-22T08:28:50.019Z,47.11
2023-05-22T08:31:16.676Z,46.59
2023-05-22T08:33:43.338Z,46.96
2023-05-22T08:36:10.021Z,46.64
2023-05-22T08:38:37.152Z,46.50
2023-05-22T08:41:06.092Z,44.29
2023-05-22T08:43:32.684Z,43.48
2023-05-22T08:46:09.395Z,43.31
2023-05-22T08:48:37.286Z,45.70
2023-05-22T08:51:05.996Z,43.53
2023-05-22T08:53:37.146Z,41.34
2023-05-22T08:56:06.739Z,41.89
2023-05-22T08:58:38.253Z,40.80
2023-05-22T09:01:07.690Z,42.45
2023-05-22T09:03:36.019Z,40.66
2023-05-22T09:06:03.323Z,43.41
2023-05-22T09:08:30.113Z,45.29
2023-05-22T09:10:56.760Z,42.23
2023-05-22T09:13:28.602Z,42.00
2023-05-22T09:16:00.712Z,40.43
2023-05-22T09:18:29.128Z,41.78
2023-05-22T09:20:58.045Z,40.32
2023-05-22T09:23:28.282Z,42.51
2023-05-22T09:26:00.265Z,41.69
2023-05-22T09:28:27.789Z,39.95
2023-05-22T09:30:55.598Z,43.02
2023-05-22T09:33:23.447Z,40.41
2023-05-22T09:35:54.190Z,43.07
2023-05-22T09:38:28.675Z,42.25
2023-05-22T09:40:56.428Z,39.13
2023-05-22T09:43:25.403Z,39.21
2023-05-22T09:46:02.064Z,37.10
2023-05-22T09:48:29.043Z,40.59
2023-05-22T09:50:59.777Z,39.67
2023-05-22T09:53:29.835Z,38.85
2023-05-22T09:55:58.195Z,39.83
2023-05-22T09:58:27.294Z,39.68
2023-05-22T10:00:56.370Z,40.17
2023-05-22T10:03:24.597Z,38.35
2023-05-22T10:05:54.421Z,37.09
2023-05-22T10:08:28.233Z,37.77
2023-05-22T10:10:55.392Z,38.54
2023-05-22T10:13:22.281Z,38.34
2023-05-22T10:15:49.937Z,37.88
2023-05-22T10:18:17.531Z,38.23
2023-05-22T10:20:46.891Z,38.41
2023-05-22T10:23:16.573Z,38.90
2023-05-22T10:25:44.719Z,37.81
2023-05-22T10:28:14.297Z,37.59
2023-05-22T10:30:41.233Z,38.16
2023-05-22T10:33:36.658Z,39.72
2023-05-22T10:36:23.126Z,41.66
2023-05-22T10:39:01.564Z,36.38
2023-05-22T10:41:28.543Z,36.68
2023-05-22T10:43:57.415Z,36.62
2023-05-22T10:46:24.481Z,38.08
2023-05-22T10:48:54.264Z,36.00
2023-05-22T10:51:24.757Z,38.08
2023-05-22T10:53:55.599Z,37.74
2023-05-22T10:56:25.146Z,35.37
2023-05-22T10:58:57.740Z,35.20
2023-05-22T11:01:27.427Z,35.84
2023-05-22T11:03:55.258Z,34.15
2023-05-22T11:06:37.059Z,35.72
2023-05-22T11:09:31.082Z,36.25
2023-05-22T11:12:17.802Z,35.51
2023-05-22T11:14:55.661Z,34.58
2023-05-22T11:17:29.396Z,35.72
2023-05-22T11:19:59.842Z,35.68
2023-05-22T11:22:34.322Z,37.56
2023-05-22T11:25:05.147Z,36.35
2023-05-22T11:27:31.997Z,36.17
2023-05-22T11:30:01.363Z,37.43
2023-05-22T11:32:28.364Z,35.26
2023-05-22T11:34:57.147Z,33.98
2023-05-22T11:37:24.111Z,33.02
2023-05-22T11:40:04.753Z,34.76
2023-05-22T11:42:31.537Z,35.37
2023-05-22T11:44:58.369Z,34.31
2023-05-22T11:47:26.867Z,34.75
2023-05-22T11:49:54.189Z,34.05
2023-05-22T11:52:21.106Z,35.14
2023-05-22T11:54:48.407Z,34.04
2023-05-22T11:57:15.504Z,34.29
2023-05-22T11:59:48.781Z,34.32
2023-05-22T12:02:19.126Z,34.48
2023-05-22T12:04:46.393Z,33.63
2023-05-22T12:07:13.569Z,33.70
2023-05-22T12:09:40.882Z,34.24
2023-05-22T12:12:11.622Z,32.73
2023-05-22T12:14:38.609Z,32.98
2023-05-22T12:17:06.429Z,31.99
2023-05-22T12:19:33.291Z,32.28
2023-05-22T12:21:59.873Z,31.02
2023-05-22T12:24:26.573Z,31.62
2023-05-22T12:26:53.933Z,31.58
2023-05-22T12:29:23.786Z,31.86
2023-05-22T12:31:51.276Z,30.51
2023-05-22T12:34:21.227Z,31.88
2023-05-22T12:36:48.079Z,31.68
2023-05-22T12:39:18.679Z,32.22
2023-05-22T12:41:45.950Z,30.45
2023-05-22T12:44:14.973Z,30.56
2023-05-22T12:46:41.967Z,30.25
2023-05-22T12:49:09.089Z,30.33
2023-05-22T12:51:35.766Z,31.38
2023-05-22T12:54:03.660Z,32.04
2023-05-22T12:56:31.448Z,30.50
2023-05-22T12:58:58.725Z,30.79
2023-05-22T13:01:26.305Z,32.24
2023-05-22T13:03:53.073Z,30.86
2023-05-22T13:06:20.621Z,32.85
2023-05-22T13:08:47.324Z,30.75
2023-05-22T13:11:14.042Z,32.03
2023-05-22T13:13:40.733Z,30.76
2023-05-22T13:16:07.428Z,30.10
2023-05-22T13:18:34.226Z,31.42
2023-05-22T13:21:00.918Z,31.50
2023-05-22T13:23:27.502Z,31.74
2023-05-22T13:25:54.169Z,31.63
2023-05-22T13:28:21.079Z,31.86
2023-05-22T13:30:47.639Z,31.13
2023-05-22T13:33:14.314Z,29.83
2023-05-22T13:35:41.172Z,29.93
2023-05-22T13:38:07.946Z,27.54
2023-05-22T13:40:34.584Z,28.58
2023-05-22T13:43:01.236Z,29.95
2023-05-22T13:45:27.921Z,29.68
2023-05-22T13:47:54.596Z,30.57
2023-05-22T13:50:21.240Z,31.01
2023-05-22T13:52:47.926Z,27.69
2023-05-22T13:55:14.585Z,27.89
2023-05-22T13:57:41.343Z,28.92
2023-05-22T14:00:09.439Z,29.41
2023-05-22T14:02:36.117Z,28.27
2023-05-22T14:05:03.074Z,29.47
2023-05-22T14:07:29.653Z,29.68
2023-05-22T14:09:57.144Z,28.52
2023-05-22T14:12:25.179Z,30.02
2023-05-22T14:14:51.794Z,29.61
2023-05-22T14:17:18.389Z,31.57
2023-05-22T14:19:45.084Z,29.67
2023-05-22T14:22:11.803Z,28.75
2023-05-22T14:24:38.425Z,30.48
2023-05-22T14:27:05.354Z,31.09
2023-05-22T14:29:31.955Z,31.18
2023-05-22T14:32:04.309Z,29.27
2023-05-22T14:34:31.555Z,28.94
2023-05-22T14:36:58.563Z,30.12
2023-05-22T14:39:25.833Z,30.46
2023-05-22T14:41:55.548Z,28.37
2023-05-22T14:44:24.936Z,28.33
2023-05-22T14:46:53.541Z,28.97
2023-05-22T14:49:20.417Z,27.53
2023-05-22T14:51:48.361Z,27.58
2023-05-22T14:54:19.185Z,27.89
2023-05-22T14:56:46.362Z,29.62
2023-05-22T14:59:14.357Z,29.09
2023-05-22T15:01:41.503Z,28.14
2023-05-22T15:04:08.882Z,28.74
2023-05-22T15:06:36.227Z,27.27
2023-05-22T15:09:03.806Z,27.57
2023-05-22T15:11:30.427Z,29.33
2023-05-22T15:13:57.121Z,30.08
2023-05-22T15:16:25.703Z,31.06
2023-05-22T15:18:52.540Z,32.51
2023-05-22T15:21:19.551Z,30.74
2023-05-22T15:23:46.349Z,33.15
2023-05-22T15:26:12.932Z,33.28
2023-05-22T15:28:39.581Z,36.56
2023-05-22T15:31:06.527Z,33.81
2023-05-22T15:33:34.381Z,34.30
2023-05-22T15:36:01.046Z,35.39
2023-05-22T15:38:28.370Z,36.35
2023-05-22T15:40:55.049Z,35.76
2023-05-22T15:43:21.967Z,35.96
2023-05-22T15:45:49.484Z,36.47
2023-05-22T15:48:16.874Z,36.50
2023-05-22T15:50:43.970Z,36.17
2023-05-22T15:53:10.699Z,37.96
2023-05-22T15:55:37.591Z,37.01
2023-05-22T15:58:06.575Z,38.31
2023-05-22T16:00:38.680Z,38.69
2023-05-22T16:03:08.898Z,38.78
2023-05-22T16:05:40.400Z,41.38
2023-05-22T16:08:10.475Z,43.06
2023-05-22T16:10:37.376Z,40.82
2023-05-22T16:13:07.888Z,40.66
2023-05-22T16:15:34.598Z,41.93
2023-05-22T16:18:01.357Z,41.60
2023-05-22T16:20:28.075Z,41.41
2023-05-22T16:22:54.735Z,46.88
2023-05-22T16:25:21.570Z,44.32
2023-05-22T16:27:48.228Z,45.45
2023-05-22T16:30:17.092Z,49.47
2023-05-22T16:32:48.055Z,47.93
2023-05-22T16:35:15.452Z,46.12
2023-05-22T16:37:42.173Z,46.04
2023-05-22T16:40:11.890Z,43.38
2023-05-22T16:42:38.544Z,42.85
2023-05-22T16:45:06.587Z,43.91
2023-05-22T16:47:33.282Z,44.50
2023-05-22T16:50:00.167Z,44.17
2023-05-22T16:52:26.912Z,44.95
2023-05-22T16:54:54.094Z,44.12
2023-05-22T16:57:21.358Z,43.26
2023-05-22T16:59:48.156Z,43.34
2023-05-22T17:02:15.008Z,45.30
2023-05-22T17:04:41.641Z,44.85
2023-05-22T17:07:08.232Z,45.78
2023-05-22T17:09:34.912Z,54.37
2023-05-22T17:12:01.525Z,53.46
2023-05-22T17:14:28.134Z,55.12
2023-05-22T17:16:55.804Z,57.69
2023-05-22T17:19:22.989Z,57.09
2023-05-22T17:21:49.769Z,55.71
2023-05-22T17:24:16.466Z,53.63
2023-05-22T17:26:44.507Z,52.15
2023-05-22T17:29:11.158Z,51.84
2023-05-22T17:31:39.501Z,52.60
2023-05-22T17:34:06.524Z,52.46
2023-05-22T17:36:33.387Z,49.96
2023-05-22T17:39:00.114Z,48.30
2023-05-22T17:41:26.749Z,47.22
2023-05-22T17:43:55.907Z,48.88
2023-05-22T17:46:22.951Z,51.13
2023-05-22T17:48:49.657Z,51.27
2023-05-22T17:51:16.339Z,53.71
2023-05-22T17:53:43.106Z,53.05
2023-05-22T17:56:09.842Z,51.62
2023-05-22T17:58:36.482Z,48.80
2023-05-22T18:01:03.259Z,48.60
2023-05-22T18:03:30.832Z,49.05
2023-05-22T18:05:57.756Z,49.46
2023-05-22T18:08:24.480Z,50.73
2023-05-22T18:10:51.385Z,52.31
2023-05-22T18:13:19.523Z,49.61
2023-05-22T18:15:46.206Z,50.30
2023-05-22T18:18:13.182Z,51.70
2023-05-22T18:20:40.282Z,51.57
2023-05-22T18:23:07.180Z,50.17
2023-05-22T18:25:33.819Z,51.56
2023-05-22T18:28:00.586Z,51.35
2023-05-22T18:30:27.208Z,57.14
2023-05-22T18:32:53.906Z,57.58
2023-05-22T18:35:20.696Z,57.62
2023-05-22T18:37:47.313Z,57.66
2023-05-22T18:40:13.960Z,58.54
2023-05-22T18:42:40.718Z,56.21
2023-05-22T18:45:08.055Z,59.68
2023-05-22T18:47:34.865Z,60.61
2023-05-22T18:50:01.568Z,59.96
2023-05-22T18:52:28.211Z,58.23
2023-05-22T18:54:54.907Z,59.00
2023-05-22T18:57:21.701Z,61.10
2023-05-22T18:59:48.382Z,62.54
2023-05-22T19:02:16.881Z,63.74
2023-05-22T19:04:43.817Z,64.28
2023-05-22T19:07:10.649Z,64.69
2023-05-22T19:09:37.646Z,64.15
2023-05-22T19:12:04.919Z,66.51
2023-05-22T19:14:31.799Z,66.81
2023-05-22T19:17:00.295Z,67.81
2023-05-22T19:19:27.583Z,66.56
2023-05-22T19:21:54.382Z,70.27
2023-05-22T19:24:21.159Z,70.00
2023-05-22T19:26:47.859Z,71.40
2023-05-22T19:29:15.778Z,71.02
2023-05-22T19:31:42.648Z,71.63
2023-05-22T19:34:09.311Z,72.66
2023-05-22T19:36:36.282Z,71.12
2023-05-22T19:39:04.015Z,72.66
2023-05-22T19:41:30.617Z,73.70
2023-05-22T19:43:57.472Z,74.23
2023-05-22T19:46:24.432Z,74.54
2023-05-22T19:48:51.064Z,74.17
2023-05-22T19:51:17.715Z,73.83
2023-05-22T19:53:44.496Z,75.67
2023-05-22T19:56:11.502Z,78.30
2023-05-22T19:58:38.154Z,79.30
2023-05-22T20:01:04.821Z,79.02
2023-05-22T20:03:31.616Z,77.40
2023-05-22T20:05:58.325Z,78.82
2023-05-22T20:08:25.567Z,79.63
2023-05-22T20:10:52.588Z,80.12
2023-05-22T20:13:19.176Z,81.09
2023-05-22T20:15:47.837Z,80.85
2023-05-22T20:18:14.626Z,80.43
2023-05-22T20:20:41.463Z,80.96
2023-05-22T20:23:08.190Z,80.85
2023-05-22T20:25:35.032Z,80.08
2023-05-22T20:28:03.810Z,79.37
2023-05-22T20:30:31.102Z,80.73
2023-05-22T20:32:57.836Z,81.43
2023-05-22T20:35:26.387Z,82.25
2023-05-22T20:37:53.432Z,81.23
2023-05-22T20:40:20.366Z,83.12
2023-05-22T20:42:47.515Z,83.26
2023-05-22T20:45:15.988Z,82.41
2023-05-22T20:47:43.153Z,82.93
2023-05-22T20:50:10.198Z,83.31
2023-05-22T20:52:39.888Z,83.36
2023-05-22T20:55:06.947Z,83.82
2023-05-22T20:57:34.349Z,83.81
2023-05-22T21:00:01.530Z,84.97
2023-05-22T21:02:28.254Z,84.23
2023-05-22T21:04:54.994Z,85.09
2023-05-22T21:07:21.686Z,85.47
2023-05-22T21:09:48.268Z,85.13
2023-05-22T21:12:14.900Z,85.38
2023-05-22T21:14:43.466Z,86.08
2023-05-22T21:17:10.473Z,86.02
2023-05-22T21:19:37.172Z,86.08
2023-05-22T21:22:04.034Z,85.90
2023-05-22T21:24:32.530Z,85.72
2023-05-22T21:26:59.686Z,86.28
2023-05-22T21:29:26.555Z,86.48
2023-05-22T21:31:53.295Z,86.46
2023-05-22T21:34:19.997Z,86.57
2023-05-22T21:36:46.719Z,87.36
2023-05-22T21:39:13.363Z,87.46
2023-05-22T21:41:40.025Z,87.12
2023-05-22T21:44:07.910Z,88.20
2023-05-22T21:46:34.765Z,89.17
2023-05-22T21:49:03.314Z,90.50
2023-05-22T21:51:29.975Z,91.69
2023-05-22T21:53:56.595Z,91.37
2023-05-22T21:56:23.278Z,90.91
2023-05-22T21:58:49.918Z,90.36
2023-05-22T22:01:16.615Z,90.24
2023-05-22T22:03:43.368Z,90.21
2023-05-22T22:06:10.303Z,89.99
2023-05-22T22:08:38.240Z,90.42
2023-05-22T22:11:04.913Z,90.51
2023-05-22T22:13:31.649Z,91.45
2023-05-22T22:15:59.374Z,92.05
2023-05-22T22:18:26.104Z,92.41
2023-05-22T22:20:54.150Z,93.24
2023-05-22T22:23:21.947Z,92.48
2023-05-22T22:25:48.996Z,92.82
2023-05-22T22:28:15.919Z,92.30
2023-05-22T22:30:42.649Z,92.74
2023-05-22T22:33:09.448Z,92.36
2023-05-22T22:35:36.298Z,92.20
2023-05-22T22:38:03.231Z,92.12
2023-05-22T22:40:29.839Z,92.46
2023-05-22T22:42:56.436Z,92.43
2023-05-22T22:45:23.036Z,92.88
2023-05-22T22:47:49.673Z,93.16
2023-05-22T22:50:16.807Z,92.46
2023-05-22T22:52:46.275Z,93.65
2023-05-22T22:55:13.535Z,93.59
2023-05-22T22:57:43.355Z,93.51
2023-05-22T23:00:13.206Z,94.10
2023-05-22T23:02:40.341Z,94.59
2023-05-22T23:05:07.772Z,94.35
2023-05-22T23:07:34.673Z,94.00
2023-05-22T23:10:01.240Z,94.62
2023-05-22T23:12:27.899Z,96.21
2023-05-22T23:14:55.473Z,96.08
2023-05-22T23:17:22.062Z,96.35
2023-05-22T23:19:48.617Z,97.71
2023-05-22T23:22:15.246Z,97.96
2023-05-22T23:24:41.824Z,97.92
2023-05-22T23:27:08.396Z,96.79
2023-05-22T23:29:34.988Z,97.15
2023-05-22T23:32:01.650Z,97.25
2023-05-22T23:34:28.255Z,97.49
2023-05-22T23:36:54.912Z,97.37
2023-05-22T23:39:21.539Z,97.59
2023-05-22T23:41:48.187Z,97.63
2023-05-22T23:44:14.855Z,98.43
2023-05-22T23:46:42.532Z,98.05
2023-05-22T23:49:09.231Z,98.01
2023-05-22T23:51:36.657Z,97.95
2023-05-22T23:54:03.546Z,98.30
2023-05-22T23:56:30.156Z,97.71
2023-05-22T23:58:56.799Z,98.27
